sensor_id;sensor_type;location;lat;lon;timestamp;temperature;humidity
69634;DHT22;56860;51.144;16.954;2024-02-21T00:00:01;6.5;50.9
69634;DHT22;56860;51.144;16.954;2024-02-21T00:00:22;6.6;50.8
69634;DHT22;56860;51.144;16.954;2024-02-21T00:01:01;6.4;51.2
69634;DHT22;56860;51.144;16.954;2024-02-21T00:01:22;6.5;51.1
69634;DHT22;56860;51.144;16.954;2024-02-21T00:02:01;6.3;51.6
69634;DHT22;56860;51.144;16.954;2024-02-21T00:02:23;6.4;51.4
69634;DHT22;56860;51.144;16.954;2024-02-21T00:03:01;6.3;52.0
69634;DHT22;56860;51.144;16.954;2024-02-21T00:03:22;6.3;52.0
69634;DHT22;56860;51.144;16.954;2024-02-21T00:04:01;6.2;51.8
69634;DHT22;56860;51.144;16.954;2024-02-21T00:04:22;unavailable;unavailable
69634;DHT22;56860;51.144;16.954;2024-02-21T00:05:01;6.0;52.2
69634;DHT22;56860;51.144;16.954;2024-02-21T00:05:22;6.1;51.9
69634;DHT22;56860;51.144;16.954;2024-02-21T00:06:01;6.0;52.8
69634;DHT22;56860;51.144;16.954;2024-02-21T00:06:22;6.0;52.5
69634;DHT22;56860;51.144;16.954;2024-02-21T00:07:01;6.0;52.7
69634;DHT22;56860;51.144;16.954;2024-02-21T00:07:22;6.0;53.1
69634;DHT22;56860;51.144;16.954;2024-02-21T00:08:02;5.9;53.0
69634;DHT22;56860;51.144;16.954;2024-02-21T00:08:22;5.9;53.0
69634;DHT22;56860;51.144;16.954;2024-02-21T00:09:01;5.8;53.2
69634;DHT22;56860;51.144;16.954;2024-02-21T00:09:22;5.8;53.1
69634;DHT22;56860;51.144;16.954;2024-02-21T00:10:02;5.7;53.3
69634;DHT22;56860;51.144;16.954;2024-02-21T00:10:22;5.8;53.3
69634;DHT22;56860;51.144;16.954;2024-02-21T00:11:01;5.7;53.7
69634;DHT22;56860;51.144;16.954;2024-02-21T00:11:22;5.7;53.5
69634;DHT22;56860;51.144;16.954;2024-02-21T00:12:01;5.6;54.2
69634;DHT22;56860;51.144;16.954;2024-02-21T00:12:22;5.6;54.1
69634;DHT22;56860;51.144;16.954;2024-02-21T00:13:02;5.6;54.2
69634;DHT22;56860;51.144;16.954;2024-02-21T00:13:22;5.6;54.1
69634;DHT22;56860;51.144;16.954;2024-02-21T00:14:01;5.7;54.5
69634;DHT22;56860;51.144;16.954;2024-02-21T00:14:22;5.7;54.5
69634;DHT22;56860;51.144;16.954;2024-02-21T00:15:01;5.8;54.3
69634;DHT22;56860;51.144;16.954;2024-02-21T00:15:22;5.7;54.4
69634;DHT22;56860;51.144;16.954;2024-02-21T00:16:01;5.8;54.0
69634;DHT22;56860;51.144;16.954;2024-02-21T00:16:22;5.8;54.2
69634;DHT22;56860;51.144;16.954;2024-02-21T00:17:01;5.8;54.0
69634;DHT22;56860;51.144;16.954;2024-02-21T00:17:22;5.8;53.9
69634;DHT22;56860;51.144;16.954;2024-02-21T00:18:01;5.8;54.0
69634;DHT22;56860;51.144;16.954;2024-02-21T00:18:22;5.8;54.0
69634;DHT22;56860;51.144;16.954;2024-02-21T00:19:02;5.9;54.1
69634;DHT22;56860;51.144;16.954;2024-02-21T00:19:22;5.8;54.1
69634;DHT22;56860;51.144;16.954;2024-02-21T00:20:02;5.9;53.9
69634;DHT22;56860;51.144;16.954;2024-02-21T00:20:22;5.9;53.8
69634;DHT22;56860;51.144;16.954;2024-02-21T00:21:02;5.9;53.9
69634;DHT22;56860;51.144;16.954;2024-02-21T00:21:22;5.9;53.9
69634;DHT22;56860;51.144;16.954;2024-02-21T00:22:01;5.9;53.8
69634;DHT22;56860;51.144;16.954;2024-02-21T00:22:22;5.9;53.9
69634;DHT22;56860;51.144;16.954;2024-02-21T00:23:02;5.8;53.8
69634;DHT22;56860;51.144;16.954;2024-02-21T00:23:22;5.9;53.7
69634;DHT22;56860;51.144;16.954;2024-02-21T00:24:02;5.7;53.9
69634;DHT22;56860;51.144;16.954;2024-02-21T00:24:22;5.8;53.8
69634;DHT22;56860;51.144;16.954;2024-02-21T00:25:01;5.7;54.3
69634;DHT22;56860;51.144;16.954;2024-02-21T00:25:22;5.7;54.2
69634;DHT22;56860;51.144;16.954;2024-02-21T00:26:02;5.7;54.5
69634;DHT22;56860;51.144;16.954;2024-02-21T00:26:22;5.7;54.4
69634;DHT22;56860;51.144;16.954;2024-02-21T00:27:01;5.6;54.5
69634;DHT22;56860;51.144;16.954;2024-02-21T00:27:22;5.7;54.6
69634;DHT22;56860;51.144;16.954;2024-02-21T00:28:02;5.6;54.6
69634;DHT22;56860;51.144;16.954;2024-02-21T00:28:22;5.6;54.6
69634;DHT22;56860;51.144;16.954;2024-02-21T00:29:02;5.5;54.7
69634;DHT22;56860;51.144;16.954;2024-02-21T00:29:22;5.5;54.7
69634;DHT22;56860;51.144;16.954;2024-02-21T00:30:02;5.5;55.0
69634;DHT22;56860;51.144;16.954;2024-02-21T00:30:22;5.5;54.9
69634;DHT22;56860;51.144;16.954;2024-02-21T00:31:01;5.5;55.2
69634;DHT22;56860;51.144;16.954;2024-02-21T00:31:22;5.5;55.1
69634;DHT22;56860;51.144;16.954;2024-02-21T00:32:02;5.4;55.1
69634;DHT22;56860;51.144;16.954;2024-02-21T00:32:22;5.4;55.1
69634;DHT22;56860;51.144;16.954;2024-02-21T00:33:02;5.4;55.1
69634;DHT22;56860;51.144;16.954;2024-02-21T00:33:22;5.4;55.1
69634;DHT22;56860;51.144;16.954;2024-02-21T00:34:01;5.5;55.2
69634;DHT22;56860;51.144;16.954;2024-02-21T00:34:22;5.5;55.2
69634;DHT22;56860;51.144;16.954;2024-02-21T00:35:02;5.5;55.2
69634;DHT22;56860;51.144;16.954;2024-02-21T00:35:22;5.5;55.3
69634;DHT22;56860;51.144;16.954;2024-02-21T00:36:02;5.4;55.2
69634;DHT22;56860;51.144;16.954;2024-02-21T00:36:22;5.4;55.3
69634;DHT22;56860;51.144;16.954;2024-02-21T00:37:01;5.4;55.2
69634;DHT22;56860;51.144;16.954;2024-02-21T00:37:22;5.4;55.3
69634;DHT22;56860;51.144;16.954;2024-02-21T00:38:02;5.5;55.2
69634;DHT22;56860;51.144;16.954;2024-02-21T00:38:22;5.5;55.2
69634;DHT22;56860;51.144;16.954;2024-02-21T00:39:02;5.5;55.3
69634;DHT22;56860;51.144;16.954;2024-02-21T00:39:22;5.5;55.2
69634;DHT22;56860;51.144;16.954;2024-02-21T00:40:02;5.4;55.2
69634;DHT22;56860;51.144;16.954;2024-02-21T00:40:22;5.4;55.2
69634;DHT22;56860;51.144;16.954;2024-02-21T00:41:02;5.4;55.3
69634;DHT22;56860;51.144;16.954;2024-02-21T00:41:22;5.4;55.2
69634;DHT22;56860;51.144;16.954;2024-02-21T00:42:02;5.4;55.3
69634;DHT22;56860;51.144;16.954;2024-02-21T00:42:22;5.4;55.3
69634;DHT22;56860;51.144;16.954;2024-02-21T00:43:02;5.4;55.1
69634;DHT22;56860;51.144;16.954;2024-02-21T00:43:22;5.4;54.8
69634;DHT22;56860;51.144;16.954;2024-02-21T00:44:01;5.5;55.2
69634;DHT22;56860;51.144;16.954;2024-02-21T00:44:22;5.5;55.2
69634;DHT22;56860;51.144;16.954;2024-02-21T00:45:02;5.5;55.2
69634;DHT22;56860;51.144;16.954;2024-02-21T00:45:22;5.5;55.2
69634;DHT22;56860;51.144;16.954;2024-02-21T00:46:02;5.5;55.3
69634;DHT22;56860;51.144;16.954;2024-02-21T00:46:22;5.5;55.2
69634;DHT22;56860;51.144;16.954;2024-02-21T00:47:02;5.4;55.2
69634;DHT22;56860;51.144;16.954;2024-02-21T00:47:22;unavailable;unavailable
69634;DHT22;56860;51.144;16.954;2024-02-21T00:48:02;5.4;55.4
69634;DHT22;56860;51.144;16.954;2024-02-21T00:48:22;5.4;55.3
69634;DHT22;56860;51.144;16.954;2024-02-21T00:49:02;5.5;55.5
69634;DHT22;56860;51.144;16.954;2024-02-21T00:49:22;5.4;55.5
69634;DHT22;56860;51.144;16.954;2024-02-21T00:50:02;5.5;55.3
69634;DHT22;56860;51.144;16.954;2024-02-21T00:50:22;5.5;55.5
69634;DHT22;56860;51.144;16.954;2024-02-21T00:51:02;5.5;55.2
69634;DHT22;56860;51.144;16.954;2024-02-21T00:51:22;5.5;55.3
69634;DHT22;56860;51.144;16.954;2024-02-21T00:52:02;5.5;55.3
69634;DHT22;56860;51.144;16.954;2024-02-21T00:52:22;5.5;55.2
69634;DHT22;56860;51.144;16.954;2024-02-21T00:53:02;5.5;55.2
69634;DHT22;56860;51.144;16.954;2024-02-21T00:53:22;5.5;55.3
69634;DHT22;56860;51.144;16.954;2024-02-21T00:54:02;5.5;55.2
69634;DHT22;56860;51.144;16.954;2024-02-21T00:54:24;5.5;55.2
69634;DHT22;56860;51.144;16.954;2024-02-21T00:55:02;5.4;55.1
69634;DHT22;56860;51.144;16.954;2024-02-21T00:55:22;5.5;55.2
69634;DHT22;56860;51.144;16.954;2024-02-21T00:56:02;5.4;55.2
69634;DHT22;56860;51.144;16.954;2024-02-21T00:56:22;5.4;55.2
69634;DHT22;56860;51.144;16.954;2024-02-21T00:57:02;5.4;55.5
69634;DHT22;56860;51.144;16.954;2024-02-21T00:57:22;5.4;55.5
69634;DHT22;56860;51.144;16.954;2024-02-21T00:58:02;5.3;55.6
69634;DHT22;56860;51.144;16.954;2024-02-21T00:58:22;5.3;55.5
69634;DHT22;56860;51.144;16.954;2024-02-21T00:59:02;5.4;55.6
69634;DHT22;56860;51.144;16.954;2024-02-21T00:59:22;5.3;55.7
69634;DHT22;56860;51.144;16.954;2024-02-21T01:00:02;5.4;55.6
69634;DHT22;56860;51.144;16.954;2024-02-21T01:00:22;5.4;55.6
69634;DHT22;56860;51.144;16.954;2024-02-21T01:01:02;5.4;55.4
69634;DHT22;56860;51.144;16.954;2024-02-21T01:01:22;5.4;55.5
69634;DHT22;56860;51.144;16.954;2024-02-21T01:02:02;5.4;55.4
69634;DHT22;56860;51.144;16.954;2024-02-21T01:02:22;5.4;55.4
69634;DHT22;56860;51.144;16.954;2024-02-21T01:03:02;5.5;55.2
69634;DHT22;56860;51.144;16.954;2024-02-21T01:03:22;5.5;55.3
69634;DHT22;56860;51.144;16.954;2024-02-21T01:04:02;5.5;55.3
69634;DHT22;56860;51.144;16.954;2024-02-21T01:04:22;5.5;55.3
69634;DHT22;56860;51.144;16.954;2024-02-21T01:05:02;5.5;55.2
69634;DHT22;56860;51.144;16.954;2024-02-21T01:05:22;unavailable;unavailable
69634;DHT22;56860;51.144;16.954;2024-02-21T01:06:02;5.5;55.2
69634;DHT22;56860;51.144;16.954;2024-02-21T01:06:22;5.4;55.2
69634;DHT22;56860;51.144;16.954;2024-02-21T01:07:02;5.4;55.4
69634;DHT22;56860;51.144;16.954;2024-02-21T01:07:22;5.4;55.4
69634;DHT22;56860;51.144;16.954;2024-02-21T01:08:02;5.4;55.5
69634;DHT22;56860;51.144;16.954;2024-02-21T01:08:22;5.4;55.5
69634;DHT22;56860;51.144;16.954;2024-02-21T01:09:02;5.3;55.7
69634;DHT22;56860;51.144;16.954;2024-02-21T01:09:22;5.4;55.7
69634;DHT22;56860;51.144;16.954;2024-02-21T01:10:02;5.3;56.0
69634;DHT22;56860;51.144;16.954;2024-02-21T01:10:22;5.3;55.9
69634;DHT22;56860;51.144;16.954;2024-02-21T01:11:02;5.3;56.1
69634;DHT22;56860;51.144;16.954;2024-02-21T01:11:22;5.3;56.1
69634;DHT22;56860;51.144;16.954;2024-02-21T01:12:02;5.3;56.1
69634;DHT22;56860;51.144;16.954;2024-02-21T01:12:25;5.3;56.1
69634;DHT22;56860;51.144;16.954;2024-02-21T01:13:02;5.3;56.3
69634;DHT22;56860;51.144;16.954;2024-02-21T01:13:22;5.3;56.2
69634;DHT22;56860;51.144;16.954;2024-02-21T01:14:02;5.3;56.0
69634;DHT22;56860;51.144;16.954;2024-02-21T01:14:22;5.3;56.2
69634;DHT22;56860;51.144;16.954;2024-02-21T01:15:02;5.3;56.0
69634;DHT22;56860;51.144;16.954;2024-02-21T01:15:22;5.3;56.0
69634;DHT22;56860;51.144;16.954;2024-02-21T01:16:02;5.2;56.2
69634;DHT22;56860;51.144;16.954;2024-02-21T01:16:22;5.3;56.2
69634;DHT22;56860;51.144;16.954;2024-02-21T01:17:02;5.2;56.4
69634;DHT22;56860;51.144;16.954;2024-02-21T01:17:22;5.2;56.3
69634;DHT22;56860;51.144;16.954;2024-02-21T01:18:02;5.2;56.4
69634;DHT22;56860;51.144;16.954;2024-02-21T01:18:22;5.2;56.4
69634;DHT22;56860;51.144;16.954;2024-02-21T01:19:02;5.2;56.8
69634;DHT22;56860;51.144;16.954;2024-02-21T01:19:22;5.2;56.7
69634;DHT22;56860;51.144;16.954;2024-02-21T01:20:02;5.1;57.1
69634;DHT22;56860;51.144;16.954;2024-02-21T01:20:22;5.2;56.9
69634;DHT22;56860;51.144;16.954;2024-02-21T01:21:02;5.1;57.1
69634;DHT22;56860;51.144;16.954;2024-02-21T01:21:22;5.2;57.2
69634;DHT22;56860;51.144;16.954;2024-02-21T01:22:02;5.1;57.5
69634;DHT22;56860;51.144;16.954;2024-02-21T01:22:22;5.1;57.5
69634;DHT22;56860;51.144;16.954;2024-02-21T01:23:02;5.1;57.8
69634;DHT22;56860;51.144;16.954;2024-02-21T01:23:22;5.1;57.6
69634;DHT22;56860;51.144;16.954;2024-02-21T01:24:02;5.1;57.8
69634;DHT22;56860;51.144;16.954;2024-02-21T01:24:22;5.1;57.9
69634;DHT22;56860;51.144;16.954;2024-02-21T01:25:02;5.0;58.0
69634;DHT22;56860;51.144;16.954;2024-02-21T01:25:22;5.0;58.0
69634;DHT22;56860;51.144;16.954;2024-02-21T01:26:02;5.0;58.2
69634;DHT22;56860;51.144;16.954;2024-02-21T01:26:22;5.0;58.1
69634;DHT22;56860;51.144;16.954;2024-02-21T01:27:02;5.0;58.4
69634;DHT22;56860;51.144;16.954;2024-02-21T01:27:24;5.0;58.2
69634;DHT22;56860;51.144;16.954;2024-02-21T01:28:02;5.0;58.7
69634;DHT22;56860;51.144;16.954;2024-02-21T01:28:22;5.0;58.5
69634;DHT22;56860;51.144;16.954;2024-02-21T01:29:02;5.0;58.9
69634;DHT22;56860;51.144;16.954;2024-02-21T01:29:22;5.0;58.9
69634;DHT22;56860;51.144;16.954;2024-02-21T01:30:02;5.0;59.1
69634;DHT22;56860;51.144;16.954;2024-02-21T01:30:22;5.0;59.0
69634;DHT22;56860;51.144;16.954;2024-02-21T01:31:03;5.0;59.1
69634;DHT22;56860;51.144;16.954;2024-02-21T01:31:22;5.0;59.1
69634;DHT22;56860;51.144;16.954;2024-02-21T01:32:02;5.1;59.1
69634;DHT22;56860;51.144;16.954;2024-02-21T01:32:22;5.1;59.2
69634;DHT22;56860;51.144;16.954;2024-02-21T01:33:02;5.1;59.0
69634;DHT22;56860;51.144;16.954;2024-02-21T01:33:22;5.1;59.0
69634;DHT22;56860;51.144;16.954;2024-02-21T01:34:02;5.1;59.1
69634;DHT22;56860;51.144;16.954;2024-02-21T01:34:22;5.2;59.1
69634;DHT22;56860;51.144;16.954;2024-02-21T01:35:02;5.1;59.3
69634;DHT22;56860;51.144;16.954;2024-02-21T01:35:22;5.1;59.3
69634;DHT22;56860;51.144;16.954;2024-02-21T01:36:02;5.1;59.5
69634;DHT22;56860;51.144;16.954;2024-02-21T01:36:22;5.1;59.4
69634;DHT22;56860;51.144;16.954;2024-02-21T01:37:02;5.1;59.6
69634;DHT22;56860;51.144;16.954;2024-02-21T01:37:22;5.1;59.5
69634;DHT22;56860;51.144;16.954;2024-02-21T01:38:02;5.1;59.6
69634;DHT22;56860;51.144;16.954;2024-02-21T01:38:22;5.1;59.8
69634;DHT22;56860;51.144;16.954;2024-02-21T01:39:02;5.0;60.1
69634;DHT22;56860;51.144;16.954;2024-02-21T01:39:22;5.0;60.0
69634;DHT22;56860;51.144;16.954;2024-02-21T01:40:02;5.0;60.3
69634;DHT22;56860;51.144;16.954;2024-02-21T01:40:22;5.0;60.2
69634;DHT22;56860;51.144;16.954;2024-02-21T01:41:02;5.0;60.5
69634;DHT22;56860;51.144;16.954;2024-02-21T01:41:22;5.0;60.5
69634;DHT22;56860;51.144;16.954;2024-02-21T01:42:02;4.9;60.6
69634;DHT22;56860;51.144;16.954;2024-02-21T01:42:22;4.9;60.5
69634;DHT22;56860;51.144;16.954;2024-02-21T01:43:02;4.9;60.9
69634;DHT22;56860;51.144;16.954;2024-02-21T01:43:22;4.9;60.7
69634;DHT22;56860;51.144;16.954;2024-02-21T01:44:02;4.9;61.1
69634;DHT22;56860;51.144;16.954;2024-02-21T01:44:22;4.9;61.0
69634;DHT22;56860;51.144;16.954;2024-02-21T01:45:02;4.9;61.1
69634;DHT22;56860;51.144;16.954;2024-02-21T01:45:22;4.9;61.2
69634;DHT22;56860;51.144;16.954;2024-02-21T01:46:02;4.9;61.2
69634;DHT22;56860;51.144;16.954;2024-02-21T01:46:22;4.9;61.2
69634;DHT22;56860;51.144;16.954;2024-02-21T01:47:02;5.0;61.2
69634;DHT22;56860;51.144;16.954;2024-02-21T01:47:22;5.0;61.2
69634;DHT22;56860;51.144;16.954;2024-02-21T01:48:02;5.0;61.0
69634;DHT22;56860;51.144;16.954;2024-02-21T01:48:22;5.0;60.7
69634;DHT22;56860;51.144;16.954;2024-02-21T01:49:02;5.0;61.0
69634;DHT22;56860;51.144;16.954;2024-02-21T01:49:22;5.0;61.0
69634;DHT22;56860;51.144;16.954;2024-02-21T01:50:02;5.1;60.8
69634;DHT22;56860;51.144;16.954;2024-02-21T01:50:22;5.1;60.8
69634;DHT22;56860;51.144;16.954;2024-02-21T01:51:02;5.1;60.6
69634;DHT22;56860;51.144;16.954;2024-02-21T01:51:22;5.1;60.6
69634;DHT22;56860;51.144;16.954;2024-02-21T01:52:03;5.2;60.7
69634;DHT22;56860;51.144;16.954;2024-02-21T01:52:22;5.1;60.6
69634;DHT22;56860;51.144;16.954;2024-02-21T01:53:02;5.3;60.5
69634;DHT22;56860;51.144;16.954;2024-02-21T01:53:22;5.2;60.6
69634;DHT22;56860;51.144;16.954;2024-02-21T01:54:02;5.3;60.3
69634;DHT22;56860;51.144;16.954;2024-02-21T01:54:22;5.3;60.4
69634;DHT22;56860;51.144;16.954;2024-02-21T01:55:02;5.4;60.1
69634;DHT22;56860;51.144;16.954;2024-02-21T01:55:22;5.3;60.1
69634;DHT22;56860;51.144;16.954;2024-02-21T01:56:02;5.4;60.0
69634;DHT22;56860;51.144;16.954;2024-02-21T01:56:22;5.4;60.0
69634;DHT22;56860;51.144;16.954;2024-02-21T01:57:02;5.4;60.0
69634;DHT22;56860;51.144;16.954;2024-02-21T01:57:22;5.4;59.9
69634;DHT22;56860;51.144;16.954;2024-02-21T01:58:02;5.5;59.9
69634;DHT22;56860;51.144;16.954;2024-02-21T01:58:22;5.5;59.9
69634;DHT22;56860;51.144;16.954;2024-02-21T01:59:02;5.5;59.6
69634;DHT22;56860;51.144;16.954;2024-02-21T01:59:22;5.5;59.6
69634;DHT22;56860;51.144;16.954;2024-02-21T02:00:02;5.6;59.2
69634;DHT22;56860;51.144;16.954;2024-02-21T02:00:22;5.6;59.5
69634;DHT22;56860;51.144;16.954;2024-02-21T02:01:02;5.7;58.8
69634;DHT22;56860;51.144;16.954;2024-02-21T02:01:22;5.7;59.1
69634;DHT22;56860;51.144;16.954;2024-02-21T02:02:02;5.8;58.5
69634;DHT22;56860;51.144;16.954;2024-02-21T02:02:22;5.8;58.6
69634;DHT22;56860;51.144;16.954;2024-02-21T02:03:02;5.8;58.2
69634;DHT22;56860;51.144;16.954;2024-02-21T02:03:22;5.8;58.2
69634;DHT22;56860;51.144;16.954;2024-02-21T02:04:02;5.8;58.2
69634;DHT22;56860;51.144;16.954;2024-02-21T02:04:22;5.8;58.1
69634;DHT22;56860;51.144;16.954;2024-02-21T02:05:02;5.8;57.9
69634;DHT22;56860;51.144;16.954;2024-02-21T02:05:22;5.8;57.9
69634;DHT22;56860;51.144;16.954;2024-02-21T02:06:02;5.8;57.8
69634;DHT22;56860;51.144;16.954;2024-02-21T02:06:22;5.8;57.8
69634;DHT22;56860;51.144;16.954;2024-02-21T02:07:02;5.8;57.8
69634;DHT22;56860;51.144;16.954;2024-02-21T02:07:22;5.8;57.9
69634;DHT22;56860;51.144;16.954;2024-02-21T02:08:02;5.8;57.6
69634;DHT22;56860;51.144;16.954;2024-02-21T02:08:22;5.8;57.4
69634;DHT22;56860;51.144;16.954;2024-02-21T02:09:02;5.8;57.8
69634;DHT22;56860;51.144;16.954;2024-02-21T02:09:22;5.8;57.8
69634;DHT22;56860;51.144;16.954;2024-02-21T02:10:02;5.8;57.8
69634;DHT22;56860;51.144;16.954;2024-02-21T02:10:22;5.8;57.8
69634;DHT22;56860;51.144;16.954;2024-02-21T02:11:02;5.8;57.7
69634;DHT22;56860;51.144;16.954;2024-02-21T02:11:22;5.8;57.8
69634;DHT22;56860;51.144;16.954;2024-02-21T02:12:02;5.8;57.5
69634;DHT22;56860;51.144;16.954;2024-02-21T02:12:22;5.8;57.6
69634;DHT22;56860;51.144;16.954;2024-02-21T02:13:02;5.9;57.7
69634;DHT22;56860;51.144;16.954;2024-02-21T02:13:22;5.8;57.6
69634;DHT22;56860;51.144;16.954;2024-02-21T02:14:02;5.8;57.5
69634;DHT22;56860;51.144;16.954;2024-02-21T02:14:22;5.8;57.6
69634;DHT22;56860;51.144;16.954;2024-02-21T02:15:02;5.9;57.5
69634;DHT22;56860;51.144;16.954;2024-02-21T02:15:22;5.8;57.5
69634;DHT22;56860;51.144;16.954;2024-02-21T02:16:02;5.9;57.5
69634;DHT22;56860;51.144;16.954;2024-02-21T02:16:22;unavailable;unavailable
69634;DHT22;56860;51.144;16.954;2024-02-21T02:17:02;5.9;57.2
69634;DHT22;56860;51.144;16.954;2024-02-21T02:17:22;5.9;56.8
69634;DHT22;56860;51.144;16.954;2024-02-21T02:18:02;5.9;57.2
69634;DHT22;56860;51.144;16.954;2024-02-21T02:18:22;5.9;57.2
69634;DHT22;56860;51.144;16.954;2024-02-21T02:19:02;5.9;57.1
69634;DHT22;56860;51.144;16.954;2024-02-21T02:19:22;5.9;57.1
69634;DHT22;56860;51.144;16.954;2024-02-21T02:20:02;5.9;57.0
69634;DHT22;56860;51.144;16.954;2024-02-21T02:20:22;5.9;57.1
69634;DHT22;56860;51.144;16.954;2024-02-21T02:21:02;5.9;57.1
69634;DHT22;56860;51.144;16.954;2024-02-21T02:21:23;5.9;57.0
69634;DHT22;56860;51.144;16.954;2024-02-21T02:22:05;5.9;57.1
69634;DHT22;56860;51.144;16.954;2024-02-21T02:22:23;5.9;57.2
69634;DHT22;56860;51.144;16.954;2024-02-21T02:23:03;5.9;57.1
69634;DHT22;56860;51.144;16.954;2024-02-21T02:23:23;5.9;57.0
69634;DHT22;56860;51.144;16.954;2024-02-21T02:24:02;5.9;56.8
69634;DHT22;56860;51.144;16.954;2024-02-21T02:24:23;5.9;56.9
69634;DHT22;56860;51.144;16.954;2024-02-21T02:25:02;5.9;56.7
69634;DHT22;56860;51.144;16.954;2024-02-21T02:25:22;5.9;56.8
69634;DHT22;56860;51.144;16.954;2024-02-21T02:26:02;5.9;56.8
69634;DHT22;56860;51.144;16.954;2024-02-21T02:26:22;5.9;56.8
69634;DHT22;56860;51.144;16.954;2024-02-21T02:27:02;5.9;56.9
69634;DHT22;56860;51.144;16.954;2024-02-21T02:27:22;5.9;56.9
69634;DHT22;56860;51.144;16.954;2024-02-21T02:28:02;5.9;56.5
69634;DHT22;56860;51.144;16.954;2024-02-21T02:28:22;5.9;57.0
69634;DHT22;56860;51.144;16.954;2024-02-21T02:29:02;5.9;57.2
69634;DHT22;56860;51.144;16.954;2024-02-21T02:29:22;5.9;57.1
69634;DHT22;56860;51.144;16.954;2024-02-21T02:30:02;5.9;57.2
69634;DHT22;56860;51.144;16.954;2024-02-21T02:30:22;5.9;57.2
69634;DHT22;56860;51.144;16.954;2024-02-21T02:31:02;6.0;56.9
69634;DHT22;56860;51.144;16.954;2024-02-21T02:31:22;5.9;57.1
69634;DHT22;56860;51.144;16.954;2024-02-21T02:32:02;5.9;56.6
69634;DHT22;56860;51.144;16.954;2024-02-21T02:32:22;5.9;56.7
69634;DHT22;56860;51.144;16.954;2024-02-21T02:33:02;5.9;56.6
69634;DHT22;56860;51.144;16.954;2024-02-21T02:33:22;5.9;56.6
69634;DHT22;56860;51.144;16.954;2024-02-21T02:36:02;5.8;56.7
69634;DHT22;56860;51.144;16.954;2024-02-21T02:36:22;5.8;56.6
69634;DHT22;56860;51.144;16.954;2024-02-21T02:37:02;5.8;56.9
69634;DHT22;56860;51.144;16.954;2024-02-21T02:37:22;5.8;56.8
69634;DHT22;56860;51.144;16.954;2024-02-21T02:38:02;5.8;56.8
69634;DHT22;56860;51.144;16.954;2024-02-21T02:38:22;5.8;56.8
69634;DHT22;56860;51.144;16.954;2024-02-21T02:39:03;5.8;56.8
69634;DHT22;56860;51.144;16.954;2024-02-21T02:39:22;5.8;56.8
69634;DHT22;56860;51.144;16.954;2024-02-21T02:40:02;5.8;56.7
69634;DHT22;56860;51.144;16.954;2024-02-21T02:40:22;5.8;56.7
69634;DHT22;56860;51.144;16.954;2024-02-21T02:41:02;5.8;56.6
69634;DHT22;56860;51.144;16.954;2024-02-21T02:41:22;5.8;56.7
69634;DHT22;56860;51.144;16.954;2024-02-21T02:42:02;5.8;56.7
69634;DHT22;56860;51.144;16.954;2024-02-21T02:42:22;5.8;56.7
69634;DHT22;56860;51.144;16.954;2024-02-21T02:43:02;5.9;56.5
69634;DHT22;56860;51.144;16.954;2024-02-21T02:43:22;5.8;56.6
69634;DHT22;56860;51.144;16.954;2024-02-21T02:44:02;5.9;56.4
69634;DHT22;56860;51.144;16.954;2024-02-21T02:44:22;5.9;56.4
69634;DHT22;56860;51.144;16.954;2024-02-21T02:45:02;5.9;56.3
69634;DHT22;56860;51.144;16.954;2024-02-21T02:45:22;5.9;56.4
69634;DHT22;56860;51.144;16.954;2024-02-21T02:46:02;5.9;55.6
69634;DHT22;56860;51.144;16.954;2024-02-21T02:46:22;5.9;56.3
69634;DHT22;56860;51.144;16.954;2024-02-21T02:47:02;5.9;56.3
69634;DHT22;56860;51.144;16.954;2024-02-21T02:47:22;5.9;56.1
69634;DHT22;56860;51.144;16.954;2024-02-21T02:48:02;5.9;56.2
69634;DHT22;56860;51.144;16.954;2024-02-21T02:48:22;5.9;56.2
69634;DHT22;56860;51.144;16.954;2024-02-21T02:49:02;5.9;56.3
69634;DHT22;56860;51.144;16.954;2024-02-21T02:49:22;5.9;56.2
69634;DHT22;56860;51.144;16.954;2024-02-21T02:50:02;5.9;56.2
69634;DHT22;56860;51.144;16.954;2024-02-21T02:50:22;5.9;56.2
69634;DHT22;56860;51.144;16.954;2024-02-21T02:51:02;5.8;56.4
69634;DHT22;56860;51.144;16.954;2024-02-21T02:51:22;5.8;56.2
69634;DHT22;56860;51.144;16.954;2024-02-21T02:52:02;5.7;56.5
69634;DHT22;56860;51.144;16.954;2024-02-21T02:52:22;5.7;56.5
69634;DHT22;56860;51.144;16.954;2024-02-21T02:53:02;5.7;56.7
69634;DHT22;56860;51.144;16.954;2024-02-21T02:53:22;5.7;56.7
69634;DHT22;56860;51.144;16.954;2024-02-21T02:54:02;5.7;56.9
69634;DHT22;56860;51.144;16.954;2024-02-21T02:54:22;5.7;56.8
69634;DHT22;56860;51.144;16.954;2024-02-21T02:55:02;5.7;56.8
69634;DHT22;56860;51.144;16.954;2024-02-21T02:55:22;5.7;57.0
69634;DHT22;56860;51.144;16.954;2024-02-21T02:56:02;5.7;56.8
69634;DHT22;56860;51.144;16.954;2024-02-21T02:56:22;5.7;56.8
69634;DHT22;56860;51.144;16.954;2024-02-21T02:57:02;5.7;56.7
69634;DHT22;56860;51.144;16.954;2024-02-21T02:57:22;5.7;56.8
69634;DHT22;56860;51.144;16.954;2024-02-21T02:58:02;5.6;56.6
69634;DHT22;56860;51.144;16.954;2024-02-21T02:58:22;5.7;56.7
69634;DHT22;56860;51.144;16.954;2024-02-21T02:59:02;5.6;56.7
69634;DHT22;56860;51.144;16.954;2024-02-21T02:59:22;5.6;56.7
69634;DHT22;56860;51.144;16.954;2024-02-21T03:00:02;5.6;56.6
69634;DHT22;56860;51.144;16.954;2024-02-21T03:00:22;5.6;56.6
69634;DHT22;56860;51.144;16.954;2024-02-21T03:01:02;5.6;56.7
69634;DHT22;56860;51.144;16.954;2024-02-21T03:01:22;5.6;56.5
69634;DHT22;56860;51.144;16.954;2024-02-21T03:02:03;5.5;56.8
69634;DHT22;56860;51.144;16.954;2024-02-21T03:02:22;5.6;56.8
69634;DHT22;56860;51.144;16.954;2024-02-21T03:03:02;5.5;56.8
69634;DHT22;56860;51.144;16.954;2024-02-21T03:03:22;5.5;57.0
69634;DHT22;56860;51.144;16.954;2024-02-21T03:04:03;5.5;57.2
69634;DHT22;56860;51.144;16.954;2024-02-21T03:04:22;5.5;57.1
69634;DHT22;56860;51.144;16.954;2024-02-21T03:05:03;5.5;57.2
69634;DHT22;56860;51.144;16.954;2024-02-21T03:05:22;5.5;57.2
69634;DHT22;56860;51.144;16.954;2024-02-21T03:06:02;5.4;57.2
69634;DHT22;56860;51.144;16.954;2024-02-21T03:06:22;5.4;57.2
69634;DHT22;56860;51.144;16.954;2024-02-21T03:07:03;5.3;57.4
69634;DHT22;56860;51.144;16.954;2024-02-21T03:07:23;5.3;57.3
69634;DHT22;56860;51.144;16.954;2024-02-21T03:08:03;5.3;57.5
69634;DHT22;56860;51.144;16.954;2024-02-21T03:08:22;5.3;57.5
69634;DHT22;56860;51.144;16.954;2024-02-21T03:09:02;5.3;57.5
69634;DHT22;56860;51.144;16.954;2024-02-21T03:09:22;5.3;57.5
69634;DHT22;56860;51.144;16.954;2024-02-21T03:10:03;5.3;57.7
69634;DHT22;56860;51.144;16.954;2024-02-21T03:10:22;5.3;57.6
69634;DHT22;56860;51.144;16.954;2024-02-21T03:11:02;5.3;57.8
69634;DHT22;56860;51.144;16.954;2024-02-21T03:11:22;5.3;57.8
69634;DHT22;56860;51.144;16.954;2024-02-21T03:12:02;5.3;57.8
69634;DHT22;56860;51.144;16.954;2024-02-21T03:12:22;5.3;57.9
69634;DHT22;56860;51.144;16.954;2024-02-21T03:13:02;5.3;57.7
69634;DHT22;56860;51.144;16.954;2024-02-21T03:13:22;5.3;57.7
69634;DHT22;56860;51.144;16.954;2024-02-21T03:14:03;5.3;57.7
69634;DHT22;56860;51.144;16.954;2024-02-21T03:14:22;5.3;57.6
69634;DHT22;56860;51.144;16.954;2024-02-21T03:15:03;5.4;57.5
69634;DHT22;56860;51.144;16.954;2024-02-21T03:15:22;5.4;57.5
69634;DHT22;56860;51.144;16.954;2024-02-21T03:16:02;5.4;57.4
69634;DHT22;56860;51.144;16.954;2024-02-21T03:16:22;5.4;57.5
69634;DHT22;56860;51.144;16.954;2024-02-21T03:17:04;5.5;57.4